• Join FlightAware (Why Join?)
  • Login
  • US Flag 
06:20AM EDT


 

Airport Tracker/Info


-or-


 

Live Flight TrackerFlight Track Log ✈ CPZ5843 ✈ 01-Aug-2013 ✈ KDTW - KROC

Flight Track Log - Related Links

Times and Time Zones

All times are in EDT time to prevent confusion due to time zone crossing. See the CPZ5843 flight status page for this flight to view local times or setup timezone preferences in your user account.

Time Position Orientation Groundspeed Altitude Reporting Facility
EDT Latitude Longitude Course Direction KTS MPH feet Rate Location/Type
10:40PM 42.2017 -83.3553 71° East 151 174 1,400  Level Cleveland Center
10:41PM 42.1433 -83.3472 174° South 231 266 3,200 2,220 Climbing Cleveland Center
10:42PM 42.0900 -83.3142 155° Southeast 237 273 6,200 2,280 Climbing Cleveland Center
10:43PM 42.2994 -82.8363 75° East  Level FlightAware Approximate
10:43PM 42.1178 -83.1978 72° East 343 395 8,500  Level Cleveland Center
10:44PM 42.3210 -82.7068 82° East  Level FlightAware Approximate
10:44PM 42.1489 -83.1067 65° Northeast 309 356 10,600  Level Cleveland Center
10:45PM 42.3353 -82.5754 71° East  Level FlightAware Approximate
10:45PM 42.1892 -82.9878 65° Northeast 314 361 12,100  Level Cleveland Center
10:46PM 42.2311 -82.8631 66° East 335 386 14,100 1,920 Climbing Cleveland Center
10:47PM 42.2756 -82.7328 65° Northeast 362 417 16,000 1,800 Climbing Cleveland Center
10:48PM 42.3194 -82.5994 66° East 376 433 17,700 1,560 Climbing Cleveland Center
10:49PM 42.3617 -82.4575 68° East 387 445 19,200 1,440 Climbing Cleveland Center
10:50PM 42.3744 -82.3033 84° East 407 468 20,600 1,320 Climbing Cleveland Center
10:51PM 42.3853 -82.1292 85° East 413 475 21,900 1,200 Climbing Cleveland Center
10:52PM 42.3914 -81.9636 87° East 426 490 23,000 540 Climbing Cleveland Center
10:53PM 42.4017 -81.7978 85° East 432 497 23,000  Level Cleveland Center
10:54PM 42.4075 -81.6319 87° East 439 505 23,000  Level Cleveland Center
10:55PM 42.4150 -81.4661 86° East 444 511 23,000  Level Cleveland Center
10:56PM 42.4225 -81.3031 86° East 436 502 23,000  Level Cleveland Center
10:57PM 42.4297 -81.1372 87° East 441 507 23,000  Level Cleveland Center
10:58PM 42.4344 -80.9911 87° East 441 507 23,000  Level Cleveland Center
10:59PM 42.4494 -80.8253 83° East 441 507 23,000  Level Cleveland Center
11:00PM 42.4853 -80.6733 72° East 430 495 23,000  Level Cleveland Center
11:01PM 42.5186 -80.5211 73° East 418 481 23,000  Level Cleveland Center
11:02PM 42.5539 -80.3747 72° East 418 481 23,000  Level Cleveland Center
11:03PM 42.5908 -80.2053 73° East 413 475 23,000  Level Cleveland Center
11:04PM 42.6258 -80.0500 73° East 418 481 23,000  Level Cleveland Center
11:05PM 42.6625 -79.9000 72° East 418 481 23,000  Level Cleveland Center
11:06PM 42.6989 -79.7469 72° East 423 487 23,000  Level Cleveland Center
11:07PM 42.7311 -79.5939 74° East 423 487 23,000 -360 Level Cleveland Center
11:08PM 42.7650 -79.4378 73° East 423 487 22,300 -1,500 Descending Cleveland Center
11:09PM 42.7947 -79.2844 75° East 423 487 20,000 -2,220 Descending Cleveland Center
11:10PM 42.8264 -79.1367 74° East 416 479 17,900 -2,100 Descending Cleveland Center
11:11PM 42.8578 -78.9886 74° East 404 465 15,800 -2,100 Descending Cleveland Center
11:12PM 42.8850 -78.8519 75° East 391 450 13,800 -2,040 Descending Cleveland Center
11:13PM 42.9142 -78.7150 74° East 378 435 11,800 -1,440 Descending Cleveland Center
11:14PM 42.9411 -78.5867 74° East 366 421 11,000 -540 Descending Cleveland Center
11:15PM 42.9639 -78.4694 75° East 355 409 10,800 -840 Descending Cleveland Center
11:16PM 42.9789 -78.3783 77° East 305 351 9,600 -1,740 Descending Cleveland Center
11:17PM 43.0019 -78.2725 73° East 303 349 7,900 -1,320 Descending Cleveland Center
11:18PM 43.0353 -78.1689 66° East 284 327 7,000 -480 Descending Cleveland Center
11:19PM 43.0769 -78.0733 59° Northeast 289 333 7,000 -360 Level Cleveland Center
11:20PM 43.1125 -77.9811 62° Northeast 286 329 6,400 -1,200 Descending Cleveland Center
11:21PM 43.1519 -77.8883 60° Northeast 287 330 4,700 -1,680 Descending Cleveland Center
11:22PM 43.1894 -77.7956 61° Northeast 277 319 3,100 -960 Descending Cleveland Center
11:23PM 43.2228 -77.7142 61° Northeast 210 242 2,800 -360 Descending Cleveland Center
11:24PM 43.2108 -77.6522 105° East 175 201 2,400 -600 Descending Cleveland Center
11:25PM 43.1708 -77.6342 162° South 144 166 1,600 -720 Descending Cleveland Center
11:26PM 43.1403 -77.6639 215° Southwest 127 146 900 -660 Descending Cleveland Center